Hauptseite
METAR-TAF:

METAR-TAF

Flughäfen :

RNAS Culdrose

Culdrose, England

Breite: 50-05N, Länge: 005-15W, Höhe: 78 m

Beobachtung

Neuester Wetterbericht von vor 36 Minuten, um 09:50 UTC
Wind 9 kt aus Ost
Temperatur 20°C
Luftfeuchtigkeit 64%
Luftdruck 1035 hPa
Sichtweite 10 km oder mehr
keine Wolken unter 1500 m und keine Kumulonimbus oder Gewitterwolken

METAR: EGDR 270950Z 08009KT CAVOK 20/13 Q1035 BLU NOSIG RMK BLU BLU

Zeit: 11:26 (10:26 UTC)

Prognose

Neuester Wetterbericht von vor 2 Stunden und 42 Minuten, um 07:44 UTC
Gültige Prognose vom 27 um 09 UTC bis 27 um 18 UTC
Wind 5 kt aus Ost/Nordost
Sichtweite 10 km oder mehr
Leicht bewölkt in der Höhe von 4500 ft
Übergehend zu
vom 27 um 11 UTC bis 27 um 13 UTC
Wind 10 kt aus West/Südwest

TAF: EGDR 270744Z 2709/2718 07005KT 9999 FEW045 BECMG 2711/2713 24010KT

Wetterbeobachtungen und Prognosen von mehr als 4000 Flughäfen (METAR und TAF Bericht).

Die verfügbaren Stationen werden durch gelbe und rote Markierungen auf der Karte dargestellt.

Führen Sie die Maus auf sie, um den Namen der Station zu sehen.

Darauf klicken, um die Beobachtung von Wetterbeobachtungen und Prognosen zu sehen.

Um die Karte zu ändern : klicken Sie auf den grünen Tasten mit einem schwarzen Kreuz Zum Vergrößern, auf den grünen Button mit einem Gedankenstrich zu verkleinern, oder auf die grünen Pfeile für benachbarte Karten.


METAR-TAF: